sensor_id;sensor_type;location;lat;lon;timestamp;pressure;altitude;pressure_sealevel;temperature;humidity
69257;BME280;56376;53.356;-1.748;2023-06-19T00:00:08;98597.53;;;16.22;100.00
69257;BME280;56376;53.356;-1.748;2023-06-19T00:02:41;98594.19;;;16.20;100.00
69257;BME280;56376;53.356;-1.748;2023-06-19T00:05:08;98589.75;;;16.21;100.00
69257;BME280;56376;53.356;-1.748;2023-06-19T00:07:35;98576.81;;;16.18;100.00
69257;BME280;56376;53.356;-1.748;2023-06-19T00:10:01;98569.97;;;16.15;100.00
69257;BME280;56376;53.356;-1.748;2023-06-19T00:12:26;98574.38;;;16.15;100.00
69257;BME280;56376;53.356;-1.748;2023-06-19T00:14:51;98576.19;;;16.14;100.00
69257;BME280;56376;53.356;-1.748;2023-06-19T00:17:17;98581.44;;;16.14;100.00
69257;BME280;56376;53.356;-1.748;2023-06-19T00:19:43;98572.72;;;16.14;100.00
69257;BME280;56376;53.356;-1.748;2023-06-19T00:22:08;98580.63;;;16.14;100.00
69257;BME280;56376;53.356;-1.748;2023-06-19T00:24:34;98578.22;;;16.11;100.00
69257;BME280;56376;53.356;-1.748;2023-06-19T00:26:59;98571.03;;;16.13;100.00
69257;BME280;56376;53.356;-1.748;2023-06-19T00:29:31;98565.97;;;16.10;100.00
69257;BME280;56376;53.356;-1.748;2023-06-19T00:31:59;98567.03;;;16.07;100.00
69257;BME280;56376;53.356;-1.748;2023-06-19T00:34:24;98562.84;;;16.05;100.00
69257;BME280;56376;53.356;-1.748;2023-06-19T00:36:50;98568.25;;;16.03;100.00
69257;BME280;56376;53.356;-1.748;2023-06-19T00:39:16;98563.31;;;15.98;100.00
69257;BME280;56376;53.356;-1.748;2023-06-19T00:41:43;98573.94;;;15.97;100.00
69257;BME280;56376;53.356;-1.748;2023-06-19T00:44:09;98570.09;;;15.90;100.00
69257;BME280;56376;53.356;-1.748;2023-06-19T00:46:37;98585.03;;;15.89;100.00
69257;BME280;56376;53.356;-1.748;2023-06-19T00:49:03;98576.53;;;15.86;100.00
69257;BME280;56376;53.356;-1.748;2023-06-19T00:51:28;98591.59;;;15.84;100.00
69257;BME280;56376;53.356;-1.748;2023-06-19T00:53:55;98590.03;;;15.81;100.00
69257;BME280;56376;53.356;-1.748;2023-06-19T00:56:20;98592.91;;;15.78;100.00
69257;BME280;56376;53.356;-1.748;2023-06-19T00:58:45;98592.16;;;15.76;100.00
69257;BME280;56376;53.356;-1.748;2023-06-19T01:01:11;98600.91;;;15.76;100.00
69257;BME280;56376;53.356;-1.748;2023-06-19T01:03:37;98601.84;;;15.75;100.00
69257;BME280;56376;53.356;-1.748;2023-06-19T01:06:06;98603.66;;;15.75;100.00
69257;BME280;56376;53.356;-1.748;2023-06-19T01:11:02;98601.34;;;15.70;100.00
69257;BME280;56376;53.356;-1.748;2023-06-19T01:13:37;98603.13;;;15.70;100.00
69257;BME280;56376;53.356;-1.748;2023-06-19T01:16:06;98599.84;;;15.66;100.00
69257;BME280;56376;53.356;-1.748;2023-06-19T01:18:32;98599.75;;;15.68;100.00
69257;BME280;56376;53.356;-1.748;2023-06-19T01:21:14;98600.69;;;15.67;100.00
69257;BME280;56376;53.356;-1.748;2023-06-19T01:23:40;98595.31;;;15.68;100.00
69257;BME280;56376;53.356;-1.748;2023-06-19T01:26:07;98594.59;;;15.66;100.00
69257;BME280;56376;53.356;-1.748;2023-06-19T01:28:34;98603.22;;;15.68;100.00
69257;BME280;56376;53.356;-1.748;2023-06-19T01:31:05;98596.25;;;15.67;100.00
69257;BME280;56376;53.356;-1.748;2023-06-19T01:33:33;98596.47;;;15.64;100.00
69257;BME280;56376;53.356;-1.748;2023-06-19T01:36:00;98598.88;;;15.67;100.00
69257;BME280;56376;53.356;-1.748;2023-06-19T01:38:29;98613.00;;;15.66;100.00
69257;BME280;56376;53.356;-1.748;2023-06-19T01:40:56;98614.81;;;15.66;100.00
69257;BME280;56376;53.356;-1.748;2023-06-19T01:43:23;98619.00;;;15.68;100.00
69257;BME280;56376;53.356;-1.748;2023-06-19T01:45:49;98616.47;;;15.67;100.00
69257;BME280;56376;53.356;-1.748;2023-06-19T01:48:15;98614.69;;;15.67;100.00
69257;BME280;56376;53.356;-1.748;2023-06-19T01:50:45;98611.44;;;15.64;100.00
69257;BME280;56376;53.356;-1.748;2023-06-19T01:53:12;98627.75;;;15.69;100.00
69257;BME280;56376;53.356;-1.748;2023-06-19T01:55:38;98619.84;;;15.69;100.00
69257;BME280;56376;53.356;-1.748;2023-06-19T01:58:03;98619.00;;;15.68;100.00
69257;BME280;56376;53.356;-1.748;2023-06-19T02:00:29;98627.00;;;15.67;100.00
69257;BME280;56376;53.356;-1.748;2023-06-19T02:02:55;98623.63;;;15.65;100.00
69257;BME280;56376;53.356;-1.748;2023-06-19T02:05:21;98607.84;;;15.65;100.00
69257;BME280;56376;53.356;-1.748;2023-06-19T02:07:46;98614.81;;;15.66;100.00
69257;BME280;56376;53.356;-1.748;2023-06-19T02:10:12;98615.53;;;15.68;100.00
69257;BME280;56376;53.356;-1.748;2023-06-19T02:12:37;98607.75;;;15.66;100.00
69257;BME280;56376;53.356;-1.748;2023-06-19T02:15:03;98612.19;;;15.66;100.00
69257;BME280;56376;53.356;-1.748;2023-06-19T02:17:28;98611.22;;;15.67;100.00
69257;BME280;56376;53.356;-1.748;2023-06-19T02:19:54;98609.78;;;15.63;100.00
69257;BME280;56376;53.356;-1.748;2023-06-19T02:22:19;98611.34;;;15.65;100.00
69257;BME280;56376;53.356;-1.748;2023-06-19T02:24:44;98608.72;;;15.65;100.00
69257;BME280;56376;53.356;-1.748;2023-06-19T02:27:10;98600.91;;;15.64;100.00
69257;BME280;56376;53.356;-1.748;2023-06-19T02:29:36;98612.41;;;15.63;100.00
69257;BME280;56376;53.356;-1.748;2023-06-19T02:32:02;98618.50;;;15.63;100.00
69257;BME280;56376;53.356;-1.748;2023-06-19T02:34:28;98620.50;;;15.59;100.00
69257;BME280;56376;53.356;-1.748;2023-06-19T02:36:53;98612.50;;;15.61;100.00
69257;BME280;56376;53.356;-1.748;2023-06-19T02:39:19;98609.97;;;15.59;100.00
69257;BME280;56376;53.356;-1.748;2023-06-19T02:41:44;98610.94;;;15.58;100.00
69257;BME280;56376;53.356;-1.748;2023-06-19T02:44:12;98618.81;;;15.58;100.00
69257;BME280;56376;53.356;-1.748;2023-06-19T02:46:37;98604.09;;;15.56;100.00
69257;BME280;56376;53.356;-1.748;2023-06-19T02:49:03;98599.88;;;15.53;100.00
69257;BME280;56376;53.356;-1.748;2023-06-19T02:51:28;98607.88;;;15.52;100.00
69257;BME280;56376;53.356;-1.748;2023-06-19T02:53:54;98611.47;;;15.51;100.00
69257;BME280;56376;53.356;-1.748;2023-06-19T02:56:19;98612.53;;;15.48;100.00
69257;BME280;56376;53.356;-1.748;2023-06-19T02:58:45;98617.28;;;15.43;100.00
69257;BME280;56376;53.356;-1.748;2023-06-19T03:01:10;98615.72;;;15.41;100.00
69257;BME280;56376;53.356;-1.748;2023-06-19T03:03:35;98616.66;;;15.40;100.00
69257;BME280;56376;53.356;-1.748;2023-06-19T03:06:06;98608.22;;;15.34;100.00
69257;BME280;56376;53.356;-1.748;2023-06-19T03:08:36;98611.91;;;15.32;100.00
69257;BME280;56376;53.356;-1.748;2023-06-19T03:11:01;98623.50;;;15.29;100.00
69257;BME280;56376;53.356;-1.748;2023-06-19T03:13:35;98611.63;;;15.24;100.00
69257;BME280;56376;53.356;-1.748;2023-06-19T03:16:01;98624.69;;;15.25;100.00
69257;BME280;56376;53.356;-1.748;2023-06-19T03:18:26;98623.94;;;15.23;100.00
69257;BME280;56376;53.356;-1.748;2023-06-19T03:20:51;98628.47;;;15.21;100.00
69257;BME280;56376;53.356;-1.748;2023-06-19T03:23:17;98615.75;;;15.15;100.00
69257;BME280;56376;53.356;-1.748;2023-06-19T03:25:42;98623.53;;;15.17;100.00
69257;BME280;56376;53.356;-1.748;2023-06-19T03:28:08;98618.59;;;15.12;100.00
69257;BME280;56376;53.356;-1.748;2023-06-19T03:30:33;98628.38;;;15.10;100.00
69257;BME280;56376;53.356;-1.748;2023-06-19T03:32:59;98619.09;;;15.04;100.00
69257;BME280;56376;53.356;-1.748;2023-06-19T03:35:24;98620.28;;;15.00;100.00
69257;BME280;56376;53.356;-1.748;2023-06-19T03:37:49;98613.53;;;14.96;100.00
69257;BME280;56376;53.356;-1.748;2023-06-19T03:40:15;98616.38;;;14.93;100.00
69257;BME280;56376;53.356;-1.748;2023-06-19T03:42:41;98615.66;;;14.91;100.00
69257;BME280;56376;53.356;-1.748;2023-06-19T03:45:07;98620.91;;;14.91;100.00
69257;BME280;56376;53.356;-1.748;2023-06-19T03:47:32;98626.47;;;14.86;100.00
69257;BME280;56376;53.356;-1.748;2023-06-19T03:49:58;98631.19;;;14.81;100.00
69257;BME280;56376;53.356;-1.748;2023-06-19T03:52:23;98641.84;;;14.80;100.00
69257;BME280;56376;53.356;-1.748;2023-06-19T03:54:48;98627.22;;;14.76;100.00
69257;BME280;56376;53.356;-1.748;2023-06-19T03:57:14;98629.09;;;14.74;100.00
69257;BME280;56376;53.356;-1.748;2023-06-19T03:59:40;98632.16;;;14.67;100.00
69257;BME280;56376;53.356;-1.748;2023-06-19T04:02:05;98635.00;;;14.64;100.00
69257;BME280;56376;53.356;-1.748;2023-06-19T04:04:31;98637.81;;;14.61;100.00
69257;BME280;56376;53.356;-1.748;2023-06-19T04:06:56;98645.06;;;14.58;100.00
69257;BME280;56376;53.356;-1.748;2023-06-19T04:09:22;98654.00;;;14.55;100.00
69257;BME280;56376;53.356;-1.748;2023-06-19T04:11:47;98650.78;;;14.50;100.00
69257;BME280;56376;53.356;-1.748;2023-06-19T04:14:13;98646.50;;;14.49;100.00
69257;BME280;56376;53.356;-1.748;2023-06-19T04:16:38;98645.75;;;14.47;100.00
69257;BME280;56376;53.356;-1.748;2023-06-19T04:19:03;98645.00;;;14.45;100.00
69257;BME280;56376;53.356;-1.748;2023-06-19T04:21:29;98653.94;;;14.42;100.00
69257;BME280;56376;53.356;-1.748;2023-06-19T04:23:54;98655.91;;;14.39;100.00
69257;BME280;56376;53.356;-1.748;2023-06-19T04:26:19;98650.03;;;14.35;100.00
69257;BME280;56376;53.356;-1.748;2023-06-19T04:28:46;98649.28;;;14.33;100.00
69257;BME280;56376;53.356;-1.748;2023-06-19T04:31:12;98658.84;;;14.34;100.00
69257;BME280;56376;53.356;-1.748;2023-06-19T04:33:37;98657.16;;;14.33;100.00
69257;BME280;56376;53.356;-1.748;2023-06-19T04:36:03;98651.34;;;14.28;100.00
69257;BME280;56376;53.356;-1.748;2023-06-19T04:38:28;98650.53;;;14.27;100.00
69257;BME280;56376;53.356;-1.748;2023-06-19T04:40:53;98657.44;;;14.28;100.00
69257;BME280;56376;53.356;-1.748;2023-06-19T04:43:19;98654.94;;;14.27;100.00
69257;BME280;56376;53.356;-1.748;2023-06-19T04:45:45;98660.94;;;14.29;100.00
69257;BME280;56376;53.356;-1.748;2023-06-19T04:48:10;98653.78;;;14.31;100.00
69257;BME280;56376;53.356;-1.748;2023-06-19T04:50:36;98651.16;;;14.31;100.00
69257;BME280;56376;53.356;-1.748;2023-06-19T04:53:02;98667.44;;;14.36;100.00
69257;BME280;56376;53.356;-1.748;2023-06-19T04:55:27;98669.25;;;14.36;100.00
69257;BME280;56376;53.356;-1.748;2023-06-19T04:57:52;98679.75;;;14.36;100.00
69257;BME280;56376;53.356;-1.748;2023-06-19T05:00:18;98683.22;;;14.36;100.00
69257;BME280;56376;53.356;-1.748;2023-06-19T05:02:48;98686.72;;;14.37;100.00
69257;BME280;56376;53.356;-1.748;2023-06-19T05:05:14;98690.16;;;14.37;100.00
69257;BME280;56376;53.356;-1.748;2023-06-19T05:07:40;98690.25;;;14.36;100.00
69257;BME280;56376;53.356;-1.748;2023-06-19T05:10:06;98698.06;;;14.37;100.00
69257;BME280;56376;53.356;-1.748;2023-06-19T05:12:34;98694.38;;;14.40;100.00
69257;BME280;56376;53.356;-1.748;2023-06-19T05:15:00;98701.22;;;14.42;100.00
69257;BME280;56376;53.356;-1.748;2023-06-19T05:17:26;98708.06;;;14.45;100.00
69257;BME280;56376;53.356;-1.748;2023-06-19T05:19:51;98712.28;;;14.47;100.00
69257;BME280;56376;53.356;-1.748;2023-06-19T05:22:16;98712.91;;;14.51;100.00
69257;BME280;56376;53.356;-1.748;2023-06-19T05:24:44;98717.06;;;14.55;100.00
69257;BME280;56376;53.356;-1.748;2023-06-19T05:27:10;98717.81;;;14.57;100.00
69257;BME280;56376;53.356;-1.748;2023-06-19T05:29:35;98718.03;;;14.67;100.00
69257;BME280;56376;53.356;-1.748;2023-06-19T05:32:01;98715.84;;;14.74;100.00
69257;BME280;56376;53.356;-1.748;2023-06-19T05:34:26;98712.91;;;14.78;100.00
69257;BME280;56376;53.356;-1.748;2023-06-19T05:36:52;98719.53;;;14.84;100.00
69257;BME280;56376;53.356;-1.748;2023-06-19T05:39:17;98715.88;;;14.86;100.00
69257;BME280;56376;53.356;-1.748;2023-06-19T05:41:44;98717.34;;;14.90;100.00
69257;BME280;56376;53.356;-1.748;2023-06-19T05:44:11;98724.09;;;14.95;100.00
69257;BME280;56376;53.356;-1.748;2023-06-19T05:46:40;98716.94;;;14.97;100.00
69257;BME280;56376;53.356;-1.748;2023-06-19T05:49:05;98715.69;;;15.02;100.00
69257;BME280;56376;53.356;-1.748;2023-06-19T05:51:31;98724.22;;;15.06;100.00
69257;BME280;56376;53.356;-1.748;2023-06-19T05:53:56;98720.13;;;15.14;100.00
69257;BME280;56376;53.356;-1.748;2023-06-19T05:56:26;98720.66;;;15.20;100.00
69257;BME280;56376;53.356;-1.748;2023-06-19T05:58:51;98721.91;;;15.27;100.00
69257;BME280;56376;53.356;-1.748;2023-06-19T06:01:17;98725.81;;;15.34;100.00
69257;BME280;56376;53.356;-1.748;2023-06-19T06:03:43;98726.13;;;15.42;100.00
69257;BME280;56376;53.356;-1.748;2023-06-19T06:06:08;98732.53;;;15.51;100.00
69257;BME280;56376;53.356;-1.748;2023-06-19T06:08:33;98731.03;;;15.59;100.00
69257;BME280;56376;53.356;-1.748;2023-06-19T06:10:59;98724.63;;;15.64;100.00
69257;BME280;56376;53.356;-1.748;2023-06-19T06:13:25;98729.91;;;15.64;100.00
69257;BME280;56376;53.356;-1.748;2023-06-19T06:15:50;98738.75;;;15.63;100.00
69257;BME280;56376;53.356;-1.748;2023-06-19T06:18:16;98736.13;;;15.63;100.00
69257;BME280;56376;53.356;-1.748;2023-06-19T06:20:41;98744.53;;;15.68;100.00
69257;BME280;56376;53.356;-1.748;2023-06-19T06:23:06;98743.19;;;15.75;100.00
69257;BME280;56376;53.356;-1.748;2023-06-19T06:25:32;98738.44;;;15.80;100.00
69257;BME280;56376;53.356;-1.748;2023-06-19T06:27:57;98740.63;;;15.86;100.00
69257;BME280;56376;53.356;-1.748;2023-06-19T06:30:22;98748.31;;;15.89;100.00
69257;BME280;56376;53.356;-1.748;2023-06-19T06:32:48;98749.56;;;15.96;100.00
69257;BME280;56376;53.356;-1.748;2023-06-19T06:35:15;98751.97;;;15.99;100.00
69257;BME280;56376;53.356;-1.748;2023-06-19T06:37:41;98751.75;;;16.02;100.00
69257;BME280;56376;53.356;-1.748;2023-06-19T06:40:07;98758.63;;;16.05;100.00
69257;BME280;56376;53.356;-1.748;2023-06-19T06:42:36;98757.75;;;16.05;100.00
69257;BME280;56376;53.356;-1.748;2023-06-19T06:45:02;98768.09;;;16.08;100.00
69257;BME280;56376;53.356;-1.748;2023-06-19T06:47:28;98768.81;;;16.10;100.00
69257;BME280;56376;53.356;-1.748;2023-06-19T06:49:53;98767.03;;;16.10;100.00
69257;BME280;56376;53.356;-1.748;2023-06-19T06:52:18;98765.34;;;16.09;100.00
69257;BME280;56376;53.356;-1.748;2023-06-19T06:54:44;98778.53;;;16.09;100.00
69257;BME280;56376;53.356;-1.748;2023-06-19T06:57:10;98768.94;;;16.08;100.00
69257;BME280;56376;53.356;-1.748;2023-06-19T06:59:35;98775.16;;;16.07;100.00
69257;BME280;56376;53.356;-1.748;2023-06-19T07:02:01;98778.19;;;16.14;100.00
69257;BME280;56376;53.356;-1.748;2023-06-19T07:04:26;98772.81;;;16.15;100.00
69257;BME280;56376;53.356;-1.748;2023-06-19T07:06:51;98774.41;;;16.18;100.00
69257;BME280;56376;53.356;-1.748;2023-06-19T07:09:17;98780.06;;;16.25;100.00
69257;BME280;56376;53.356;-1.748;2023-06-19T07:11:43;98769.19;;;16.29;100.00
69257;BME280;56376;53.356;-1.748;2023-06-19T07:14:08;98780.56;;;16.30;100.00
69257;BME280;56376;53.356;-1.748;2023-06-19T07:16:34;98776.25;;;16.29;100.00
69257;BME280;56376;53.356;-1.748;2023-06-19T07:18:59;98775.81;;;16.35;100.00
69257;BME280;56376;53.356;-1.748;2023-06-19T07:21:27;98778.03;;;16.41;100.00
69257;BME280;56376;53.356;-1.748;2023-06-19T07:23:52;98770.94;;;16.41;100.00
69257;BME280;56376;53.356;-1.748;2023-06-19T07:26:18;98764.72;;;16.42;100.00
69257;BME280;56376;53.356;-1.748;2023-06-19T07:28:43;98782.97;;;16.46;100.00
69257;BME280;56376;53.356;-1.748;2023-06-19T07:31:09;98779.38;;;16.47;100.00
69257;BME280;56376;53.356;-1.748;2023-06-19T07:33:34;98779.38;;;16.47;100.00
69257;BME280;56376;53.356;-1.748;2023-06-19T07:36:00;98770.84;;;16.43;100.00
69257;BME280;56376;53.356;-1.748;2023-06-19T07:38:27;98782.00;;;16.47;100.00
69257;BME280;56376;53.356;-1.748;2023-06-19T07:40:53;98771.44;;;16.47;100.00
69257;BME280;56376;53.356;-1.748;2023-06-19T07:43:18;98769.78;;;16.46;100.00
69257;BME280;56376;53.356;-1.748;2023-06-19T07:45:43;98769.97;;;16.42;100.00
69257;BME280;56376;53.356;-1.748;2023-06-19T07:48:09;98781.16;;;16.46;100.00
69257;BME280;56376;53.356;-1.748;2023-06-19T07:50:34;98770.13;;;16.41;100.00
69257;BME280;56376;53.356;-1.748;2023-06-19T07:53:00;98765.16;;;16.36;100.00
69257;BME280;56376;53.356;-1.748;2023-06-19T07:55:25;98771.19;;;16.38;100.00
69257;BME280;56376;53.356;-1.748;2023-06-19T07:57:50;98777.88;;;16.42;100.00
69257;BME280;56376;53.356;-1.748;2023-06-19T08:00:17;98773.47;;;16.43;100.00
69257;BME280;56376;53.356;-1.748;2023-06-19T08:02:43;98782.00;;;16.47;100.00
69257;BME280;56376;53.356;-1.748;2023-06-19T08:05:09;98783.56;;;16.49;100.00
69257;BME280;56376;53.356;-1.748;2023-06-19T08:07:35;98771.72;;;16.55;100.00
69257;BME280;56376;53.356;-1.748;2023-06-19T08:10:02;98771.91;;;16.64;100.00
69257;BME280;56376;53.356;-1.748;2023-06-19T08:12:29;98775.88;;;16.70;100.00
69257;BME280;56376;53.356;-1.748;2023-06-19T08:14:55;98778.19;;;16.75;100.00
69257;BME280;56376;53.356;-1.748;2023-06-19T08:17:20;98776.81;;;16.82;100.00
69257;BME280;56376;53.356;-1.748;2023-06-19T08:19:45;98782.59;;;16.87;100.00
69257;BME280;56376;53.356;-1.748;2023-06-19T08:22:11;98778.78;;;16.91;100.00
69257;BME280;56376;53.356;-1.748;2023-06-19T08:24:36;98774.34;;;16.92;100.00
69257;BME280;56376;53.356;-1.748;2023-06-19T08:27:04;98784.88;;;16.92;100.00
69257;BME280;56376;53.356;-1.748;2023-06-19T08:29:29;98776.47;;;16.86;100.00
69257;BME280;56376;53.356;-1.748;2023-06-19T08:31:55;98774.69;;;16.87;100.00
69257;BME280;56376;53.356;-1.748;2023-06-19T08:34:20;98778.06;;;16.89;100.00
69257;BME280;56376;53.356;-1.748;2023-06-19T08:36:45;98772.44;;;16.94;100.00
69257;BME280;56376;53.356;-1.748;2023-06-19T08:39:11;98780.63;;;17.02;100.00
69257;BME280;56376;53.356;-1.748;2023-06-19T08:41:37;98780.38;;;17.05;100.00
69257;BME280;56376;53.356;-1.748;2023-06-19T08:44:04;98785.91;;;17.13;100.00
69257;BME280;56376;53.356;-1.748;2023-06-19T08:46:30;98776.59;;;17.20;100.00
69257;BME280;56376;53.356;-1.748;2023-06-19T08:48:55;98786.56;;;17.28;100.00
69257;BME280;56376;53.356;-1.748;2023-06-19T08:51:21;98775.41;;;17.36;100.00
69257;BME280;56376;53.356;-1.748;2023-06-19T08:53:54;98777.72;;;17.40;100.00
69257;BME280;56376;53.356;-1.748;2023-06-19T08:56:20;98769.56;;;17.43;100.00
69257;BME280;56376;53.356;-1.748;2023-06-19T08:58:45;98770.03;;;17.48;100.00
69257;BME280;56376;53.356;-1.748;2023-06-19T09:01:13;98771.38;;;17.54;100.00
69257;BME280;56376;53.356;-1.748;2023-06-19T09:03:39;98778.94;;;17.59;100.00
69257;BME280;56376;53.356;-1.748;2023-06-19T09:06:07;98779.56;;;17.62;100.00
69257;BME280;56376;53.356;-1.748;2023-06-19T09:08:33;98781.47;;;17.60;100.00
69257;BME280;56376;53.356;-1.748;2023-06-19T09:11:02;98782.44;;;17.59;100.00
69257;BME280;56376;53.356;-1.748;2023-06-19T09:13:29;98781.34;;;17.62;100.00
69257;BME280;56376;53.356;-1.748;2023-06-19T09:15:59;98784.00;;;17.62;100.00
69257;BME280;56376;53.356;-1.748;2023-06-19T09:18:27;98782.31;;;17.61;100.00
69257;BME280;56376;53.356;-1.748;2023-06-19T09:20:54;98784.00;;;17.62;100.00
69257;BME280;56376;53.356;-1.748;2023-06-19T09:23:20;98782.06;;;17.64;100.00
69257;BME280;56376;53.356;-1.748;2023-06-19T09:25:53;98786.25;;;17.66;100.00
69257;BME280;56376;53.356;-1.748;2023-06-19T09:28:21;98788.78;;;17.68;100.00
69257;BME280;56376;53.356;-1.748;2023-06-19T09:33:18;98790.25;;;17.72;100.00
69257;BME280;56376;53.356;-1.748;2023-06-19T09:35:44;98793.47;;;17.76;100.00
69257;BME280;56376;53.356;-1.748;2023-06-19T09:38:10;98797.69;;;17.78;100.00
69257;BME280;56376;53.356;-1.748;2023-06-19T09:40:37;98805.28;;;17.83;100.00
69257;BME280;56376;53.356;-1.748;2023-06-19T09:43:03;98798.44;;;17.91;100.00
69257;BME280;56376;53.356;-1.748;2023-06-19T09:45:30;98800.72;;;17.96;100.00
69257;BME280;56376;53.356;-1.748;2023-06-19T09:47:56;98795.91;;;18.01;100.00
69257;BME280;56376;53.356;-1.748;2023-06-19T09:50:23;98793.16;;;18.03;100.00
69257;BME280;56376;53.356;-1.748;2023-06-19T09:52:52;98796.53;;;18.05;100.00
69257;BME280;56376;53.356;-1.748;2023-06-19T09:55:22;98794.72;;;18.05;100.00
69257;BME280;56376;53.356;-1.748;2023-06-19T09:57:49;98796.41;;;18.06;100.00
69257;BME280;56376;53.356;-1.748;2023-06-19T10:00:17;98800.72;;;18.07;100.00
69257;BME280;56376;53.356;-1.748;2023-06-19T10:02:48;98797.94;;;18.09;100.00
69257;BME280;56376;53.356;-1.748;2023-06-19T10:05:14;98807.44;;;18.11;100.00
69257;BME280;56376;53.356;-1.748;2023-06-19T10:07:44;98800.97;;;18.15;100.00
69257;BME280;56376;53.356;-1.748;2023-06-19T10:10:21;98807.09;;;18.27;100.00
69257;BME280;56376;53.356;-1.748;2023-06-19T10:12:48;98796.84;;;18.34;100.00
69257;BME280;56376;53.356;-1.748;2023-06-19T10:15:22;98804.31;;;18.40;100.00
69257;BME280;56376;53.356;-1.748;2023-06-19T10:20:35;98811.38;;;18.51;100.00
69257;BME280;56376;53.356;-1.748;2023-06-19T10:23:06;98820.50;;;18.58;100.00
69257;BME280;56376;53.356;-1.748;2023-06-19T10:25:34;98810.75;;;18.70;100.00
69257;BME280;56376;53.356;-1.748;2023-06-19T10:28:00;98810.00;;;18.79;100.00
69257;BME280;56376;53.356;-1.748;2023-06-19T10:30:26;98815.03;;;18.82;100.00
69257;BME280;56376;53.356;-1.748;2023-06-19T10:32:51;98820.31;;;18.82;100.00
69257;BME280;56376;53.356;-1.748;2023-06-19T10:35:18;98828.66;;;18.77;100.00
69257;BME280;56376;53.356;-1.748;2023-06-19T10:37:46;98820.59;;;18.79;100.00
69257;BME280;56376;53.356;-1.748;2023-06-19T10:40:13;98818.41;;;18.84;100.00
69257;BME280;56376;53.356;-1.748;2023-06-19T10:42:42;98814.28;;;18.91;100.00
69257;BME280;56376;53.356;-1.748;2023-06-19T10:45:10;98824.50;;;18.96;100.00
69257;BME280;56376;53.356;-1.748;2023-06-19T10:47:41;98826.78;;;19.00;100.00
69257;BME280;56376;53.356;-1.748;2023-06-19T10:50:15;98827.63;;;19.01;100.00
69257;BME280;56376;53.356;-1.748;2023-06-19T10:52:42;98829.88;;;19.06;100.00
69257;BME280;56376;53.356;-1.748;2023-06-19T10:55:08;98826.25;;;19.07;100.00
69257;BME280;56376;53.356;-1.748;2023-06-19T10:57:34;98838.13;;;19.12;100.00
69257;BME280;56376;53.356;-1.748;2023-06-19T10:59:59;98831.75;;;19.15;100.00
69257;BME280;56376;53.356;-1.748;2023-06-19T11:02:25;98826.22;;;19.18;100.00
69257;BME280;56376;53.356;-1.748;2023-06-19T11:04:54;98830.63;;;19.29;100.00
69257;BME280;56376;53.356;-1.748;2023-06-19T11:07:22;98832.28;;;19.30;100.00
69257;BME280;56376;53.356;-1.748;2023-06-19T11:09:48;98829.78;;;19.28;100.00
69257;BME280;56376;53.356;-1.748;2023-06-19T11:12:19;98830.75;;;19.27;100.00
69257;BME280;56376;53.356;-1.748;2023-06-19T11:14:45;98824.72;;;19.25;100.00
69257;BME280;56376;53.356;-1.748;2023-06-19T11:17:10;98818.09;;;19.31;100.00
69257;BME280;56376;53.356;-1.748;2023-06-19T11:19:36;98818.28;;;19.39;100.00
69257;BME280;56376;53.356;-1.748;2023-06-19T11:22:03;98823.91;;;19.45;100.00
69257;BME280;56376;53.356;-1.748;2023-06-19T11:24:29;98822.09;;;19.46;100.00
69257;BME280;56376;53.356;-1.748;2023-06-19T11:26:56;98803.41;;;19.48;100.00
69257;BME280;56376;53.356;-1.748;2023-06-19T11:29:29;98801.09;;;19.54;100.00
69257;BME280;56376;53.356;-1.748;2023-06-19T11:32:09;98799.34;;;19.64;100.00
69257;BME280;56376;53.356;-1.748;2023-06-19T11:34:36;98798.72;;;19.72;100.00
69257;BME280;56376;53.356;-1.748;2023-06-19T11:37:15;98800.59;;;19.81;100.00
69257;BME280;56376;53.356;-1.748;2023-06-19T11:39:43;98798.38;;;19.86;99.57
69257;BME280;56376;53.356;-1.748;2023-06-19T11:42:09;98810.25;;;19.92;99.87
69257;BME280;56376;53.356;-1.748;2023-06-19T11:44:34;98797.72;;;19.94;99.89
69257;BME280;56376;53.356;-1.748;2023-06-19T11:47:00;98819.25;;;20.01;98.64
69257;BME280;56376;53.356;-1.748;2023-06-19T11:49:25;98823.84;;;19.99;97.19
69257;BME280;56376;53.356;-1.748;2023-06-19T11:51:51;98820.75;;;19.94;96.92
69257;BME280;56376;53.356;-1.748;2023-06-19T11:54:17;98815.94;;;19.87;98.42
69257;BME280;56376;53.356;-1.748;2023-06-19T11:56:46;98814.69;;;19.82;99.04
69257;BME280;56376;53.356;-1.748;2023-06-19T11:59:13;98816.88;;;19.77;100.00
69257;BME280;56376;53.356;-1.748;2023-06-19T12:01:39;98809.19;;;19.74;100.00
69257;BME280;56376;53.356;-1.748;2023-06-19T12:04:05;98813.66;;;19.73;100.00
69257;BME280;56376;53.356;-1.748;2023-06-19T12:06:31;98810.03;;;19.74;100.00
69257;BME280;56376;53.356;-1.748;2023-06-19T12:08:57;98812.16;;;19.80;100.00
69257;BME280;56376;53.356;-1.748;2023-06-19T12:11:22;98807.81;;;19.79;100.00
69257;BME280;56376;53.356;-1.748;2023-06-19T12:13:48;98819.84;;;19.83;100.00
69257;BME280;56376;53.356;-1.748;2023-06-19T12:16:14;98810.09;;;19.84;100.00
69257;BME280;56376;53.356;-1.748;2023-06-19T12:18:40;98815.38;;;19.84;100.00
69257;BME280;56376;53.356;-1.748;2023-06-19T12:21:05;98811.19;;;19.81;100.00
69257;BME280;56376;53.356;-1.748;2023-06-19T12:23:32;98817.19;;;19.83;100.00
69257;BME280;56376;53.356;-1.748;2023-06-19T12:25:57;98818.16;;;19.82;100.00
69257;BME280;56376;53.356;-1.748;2023-06-19T12:28:23;98812.03;;;19.82;100.00
69257;BME280;56376;53.356;-1.748;2023-06-19T12:30:48;98815.25;;;19.85;100.00
69257;BME280;56376;53.356;-1.748;2023-06-19T12:33:19;98815.94;;;19.87;100.00
69257;BME280;56376;53.356;-1.748;2023-06-19T12:35:46;98806.91;;;19.90;100.00
69257;BME280;56376;53.356;-1.748;2023-06-19T12:38:11;98813.34;;;19.97;100.00
69257;BME280;56376;53.356;-1.748;2023-06-19T12:40:37;98810.75;;;20.07;100.00
69257;BME280;56376;53.356;-1.748;2023-06-19T12:43:03;98816.38;;;20.23;100.00